sensor_id;sensor_type;location;lat;lon;timestamp;temperature;humidity
53978;DHT22;39886;47.984;-1.586;2024-03-08T00:01:41;18.20;55.10
53978;DHT22;39886;47.984;-1.586;2024-03-08T00:04:06;18.20;55.20
53978;DHT22;39886;47.984;-1.586;2024-03-08T00:06:36;18.20;55.20
53978;DHT22;39886;47.984;-1.586;2024-03-08T00:09:02;18.20;55.20
53978;DHT22;39886;47.984;-1.586;2024-03-08T00:11:27;18.10;55.20
53978;DHT22;39886;47.984;-1.586;2024-03-08T00:13:53;18.10;55.20
53978;DHT22;39886;47.984;-1.586;2024-03-08T00:16:18;18.20;55.30
53978;DHT22;39886;47.984;-1.586;2024-03-08T00:18:48;18.20;55.30
53978;DHT22;39886;47.984;-1.586;2024-03-08T00:21:14;18.10;55.30
53978;DHT22;39886;47.984;-1.586;2024-03-08T00:23:40;18.20;55.30
53978;DHT22;39886;47.984;-1.586;2024-03-08T00:26:06;18.10;55.30
53978;DHT22;39886;47.984;-1.586;2024-03-08T00:28:32;18.10;55.30
53978;DHT22;39886;47.984;-1.586;2024-03-08T00:30:59;18.10;55.30
53978;DHT22;39886;47.984;-1.586;2024-03-08T00:33:25;18.10;55.30
53978;DHT22;39886;47.984;-1.586;2024-03-08T00:35:51;18.10;55.40
53978;DHT22;39886;47.984;-1.586;2024-03-08T00:38:17;18.10;55.40
53978;DHT22;39886;47.984;-1.586;2024-03-08T00:40:44;18.10;55.40
53978;DHT22;39886;47.984;-1.586;2024-03-08T00:43:09;18.00;55.40
53978;DHT22;39886;47.984;-1.586;2024-03-08T00:45:35;18.10;55.50
53978;DHT22;39886;47.984;-1.586;2024-03-08T00:48:02;18.00;55.40
53978;DHT22;39886;47.984;-1.586;2024-03-08T00:50:28;18.00;55.50
53978;DHT22;39886;47.984;-1.586;2024-03-08T00:52:53;18.10;55.50
53978;DHT22;39886;47.984;-1.586;2024-03-08T00:55:19;18.00;55.50
53978;DHT22;39886;47.984;-1.586;2024-03-08T00:57:45;18.00;55.50
53978;DHT22;39886;47.984;-1.586;2024-03-08T01:00:12;18.00;55.50
53978;DHT22;39886;47.984;-1.586;2024-03-08T01:02:39;18.00;55.50
53978;DHT22;39886;47.984;-1.586;2024-03-08T01:05:05;18.00;55.50
53978;DHT22;39886;47.984;-1.586;2024-03-08T01:07:35;18.00;55.50
53978;DHT22;39886;47.984;-1.586;2024-03-08T01:10:02;18.00;55.60
53978;DHT22;39886;47.984;-1.586;2024-03-08T01:12:28;18.00;55.60
53978;DHT22;39886;47.984;-1.586;2024-03-08T01:14:53;17.90;55.60
53978;DHT22;39886;47.984;-1.586;2024-03-08T01:17:19;17.90;55.60
53978;DHT22;39886;47.984;-1.586;2024-03-08T01:19:44;17.90;55.60
53978;DHT22;39886;47.984;-1.586;2024-03-08T01:22:10;17.90;55.60
53978;DHT22;39886;47.984;-1.586;2024-03-08T01:24:36;18.00;55.70
53978;DHT22;39886;47.984;-1.586;2024-03-08T01:27:02;17.90;55.60
53978;DHT22;39886;47.984;-1.586;2024-03-08T01:29:28;17.90;55.60
53978;DHT22;39886;47.984;-1.586;2024-03-08T01:31:55;17.90;55.70
53978;DHT22;39886;47.984;-1.586;2024-03-08T01:34:21;17.90;55.70
53978;DHT22;39886;47.984;-1.586;2024-03-08T01:36:48;17.90;55.70
53978;DHT22;39886;47.984;-1.586;2024-03-08T01:39:14;17.90;55.80
53978;DHT22;39886;47.984;-1.586;2024-03-08T01:41:39;17.90;55.70
53978;DHT22;39886;47.984;-1.586;2024-03-08T01:44:06;17.90;55.80
53978;DHT22;39886;47.984;-1.586;2024-03-08T01:46:32;17.90;55.80
53978;DHT22;39886;47.984;-1.586;2024-03-08T01:48:58;17.90;55.80
53978;DHT22;39886;47.984;-1.586;2024-03-08T01:51:26;17.90;55.80
53978;DHT22;39886;47.984;-1.586;2024-03-08T01:53:53;17.90;55.80
53978;DHT22;39886;47.984;-1.586;2024-03-08T01:56:20;17.90;55.80
53978;DHT22;39886;47.984;-1.586;2024-03-08T01:58:46;17.80;55.80
53978;DHT22;39886;47.984;-1.586;2024-03-08T02:01:14;17.80;55.80
53978;DHT22;39886;47.984;-1.586;2024-03-08T02:03:40;17.80;55.80
53978;DHT22;39886;47.984;-1.586;2024-03-08T02:06:06;17.80;55.80
53978;DHT22;39886;47.984;-1.586;2024-03-08T02:08:35;17.80;55.80
53978;DHT22;39886;47.984;-1.586;2024-03-08T02:11:01;17.80;55.90
53978;DHT22;39886;47.984;-1.586;2024-03-08T02:13:27;17.80;55.80
53978;DHT22;39886;47.984;-1.586;2024-03-08T02:15:57;17.80;55.90
53978;DHT22;39886;47.984;-1.586;2024-03-08T02:18:26;17.80;55.90
53978;DHT22;39886;47.984;-1.586;2024-03-08T02:20:52;17.80;55.90
53978;DHT22;39886;47.984;-1.586;2024-03-08T02:23:20;17.80;55.90
53978;DHT22;39886;47.984;-1.586;2024-03-08T02:25:46;17.80;55.90
53978;DHT22;39886;47.984;-1.586;2024-03-08T02:28:12;17.80;55.90
53978;DHT22;39886;47.984;-1.586;2024-03-08T02:30:38;17.80;55.90
53978;DHT22;39886;47.984;-1.586;2024-03-08T02:33:06;17.80;56.00
53978;DHT22;39886;47.984;-1.586;2024-03-08T02:35:34;17.80;56.00
53978;DHT22;39886;47.984;-1.586;2024-03-08T02:38:00;17.80;56.00
53978;DHT22;39886;47.984;-1.586;2024-03-08T02:40:26;17.80;56.00
53978;DHT22;39886;47.984;-1.586;2024-03-08T02:42:52;17.80;56.00
53978;DHT22;39886;47.984;-1.586;2024-03-08T02:45:18;17.70;56.00
53978;DHT22;39886;47.984;-1.586;2024-03-08T02:47:43;17.70;56.00
53978;DHT22;39886;47.984;-1.586;2024-03-08T02:50:09;17.80;56.00
53978;DHT22;39886;47.984;-1.586;2024-03-08T02:52:34;17.70;56.00
53978;DHT22;39886;47.984;-1.586;2024-03-08T02:55:03;17.70;56.00
53978;DHT22;39886;47.984;-1.586;2024-03-08T02:57:31;17.70;56.00
53978;DHT22;39886;47.984;-1.586;2024-03-08T02:59:57;17.70;56.00
53978;DHT22;39886;47.984;-1.586;2024-03-08T03:02:25;17.70;56.10
53978;DHT22;39886;47.984;-1.586;2024-03-08T03:04:52;17.70;56.10
53978;DHT22;39886;47.984;-1.586;2024-03-08T03:07:17;17.70;56.10
53978;DHT22;39886;47.984;-1.586;2024-03-08T03:09:43;17.70;56.10
53978;DHT22;39886;47.984;-1.586;2024-03-08T03:12:09;17.70;56.10
53978;DHT22;39886;47.984;-1.586;2024-03-08T03:14:37;17.70;56.10
53978;DHT22;39886;47.984;-1.586;2024-03-08T03:17:05;17.70;56.20
53978;DHT22;39886;47.984;-1.586;2024-03-08T03:19:31;17.70;56.20
53978;DHT22;39886;47.984;-1.586;2024-03-08T03:21:57;17.70;56.20
53978;DHT22;39886;47.984;-1.586;2024-03-08T03:24:22;17.70;56.20
53978;DHT22;39886;47.984;-1.586;2024-03-08T03:26:48;17.70;56.20
53978;DHT22;39886;47.984;-1.586;2024-03-08T03:29:15;17.70;56.20
53978;DHT22;39886;47.984;-1.586;2024-03-08T03:31:42;17.70;56.20
53978;DHT22;39886;47.984;-1.586;2024-03-08T03:34:08;17.60;56.20
53978;DHT22;39886;47.984;-1.586;2024-03-08T03:36:34;17.70;56.20
53978;DHT22;39886;47.984;-1.586;2024-03-08T03:39:00;17.60;56.20
53978;DHT22;39886;47.984;-1.586;2024-03-08T03:41:38;17.70;56.30
53978;DHT22;39886;47.984;-1.586;2024-03-08T03:44:04;17.60;56.20
53978;DHT22;39886;47.984;-1.586;2024-03-08T03:46:30;17.60;56.20
53978;DHT22;39886;47.984;-1.586;2024-03-08T03:48:56;17.60;56.30
53978;DHT22;39886;47.984;-1.586;2024-03-08T03:51:21;17.60;56.30
53978;DHT22;39886;47.984;-1.586;2024-03-08T03:53:47;17.60;56.30
53978;DHT22;39886;47.984;-1.586;2024-03-08T03:56:13;17.60;56.40
53978;DHT22;39886;47.984;-1.586;2024-03-08T03:58:38;17.60;56.30
53978;DHT22;39886;47.984;-1.586;2024-03-08T04:01:05;17.60;56.30
53978;DHT22;39886;47.984;-1.586;2024-03-08T04:03:30;17.60;56.30
53978;DHT22;39886;47.984;-1.586;2024-03-08T04:05:56;17.60;56.30
53978;DHT22;39886;47.984;-1.586;2024-03-08T04:08:22;17.50;56.30
53978;DHT22;39886;47.984;-1.586;2024-03-08T04:10:49;17.60;56.40
53978;DHT22;39886;47.984;-1.586;2024-03-08T04:13:14;17.60;56.40
53978;DHT22;39886;47.984;-1.586;2024-03-08T04:15:41;17.60;56.40
53978;DHT22;39886;47.984;-1.586;2024-03-08T04:18:08;17.50;56.40
53978;DHT22;39886;47.984;-1.586;2024-03-08T04:20:34;17.50;56.40
53978;DHT22;39886;47.984;-1.586;2024-03-08T04:23:00;17.50;56.40
53978;DHT22;39886;47.984;-1.586;2024-03-08T04:25:25;17.50;56.40
53978;DHT22;39886;47.984;-1.586;2024-03-08T04:27:52;17.50;56.50
53978;DHT22;39886;47.984;-1.586;2024-03-08T04:30:17;17.50;56.50
53978;DHT22;39886;47.984;-1.586;2024-03-08T04:32:43;17.50;56.40
53978;DHT22;39886;47.984;-1.586;2024-03-08T04:35:09;17.50;56.40
53978;DHT22;39886;47.984;-1.586;2024-03-08T04:37:34;17.50;56.50
53978;DHT22;39886;47.984;-1.586;2024-03-08T04:40:00;17.50;56.50
53978;DHT22;39886;47.984;-1.586;2024-03-08T04:42:28;17.50;56.50
53978;DHT22;39886;47.984;-1.586;2024-03-08T04:44:54;17.50;56.50
53978;DHT22;39886;47.984;-1.586;2024-03-08T04:47:20;17.50;56.50
53978;DHT22;39886;47.984;-1.586;2024-03-08T04:49:46;17.50;56.50
53978;DHT22;39886;47.984;-1.586;2024-03-08T04:52:12;17.50;56.50
53978;DHT22;39886;47.984;-1.586;2024-03-08T04:54:37;17.50;56.50
53978;DHT22;39886;47.984;-1.586;2024-03-08T04:57:03;17.50;56.50
53978;DHT22;39886;47.984;-1.586;2024-03-08T04:59:30;17.50;56.60
53978;DHT22;39886;47.984;-1.586;2024-03-08T05:01:55;17.50;56.60
53978;DHT22;39886;47.984;-1.586;2024-03-08T05:04:21;17.60;56.50
53978;DHT22;39886;47.984;-1.586;2024-03-08T05:06:47;17.80;56.40
53978;DHT22;39886;47.984;-1.586;2024-03-08T05:09:13;18.00;56.30
53978;DHT22;39886;47.984;-1.586;2024-03-08T05:11:40;18.10;56.20
53978;DHT22;39886;47.984;-1.586;2024-03-08T05:14:05;18.20;56.10
53978;DHT22;39886;47.984;-1.586;2024-03-08T05:16:31;18.30;56.00
53978;DHT22;39886;47.984;-1.586;2024-03-08T05:18:57;18.40;55.90
53978;DHT22;39886;47.984;-1.586;2024-03-08T05:21:22;18.50;55.90
53978;DHT22;39886;47.984;-1.586;2024-03-08T05:23:48;18.60;55.80
53978;DHT22;39886;47.984;-1.586;2024-03-08T05:26:15;18.70;55.80
53978;DHT22;39886;47.984;-1.586;2024-03-08T05:28:41;18.80;55.70
53978;DHT22;39886;47.984;-1.586;2024-03-08T05:31:07;18.80;55.70
53978;DHT22;39886;47.984;-1.586;2024-03-08T05:33:33;18.90;55.60
53978;DHT22;39886;47.984;-1.586;2024-03-08T05:36:00;18.90;55.60
53978;DHT22;39886;47.984;-1.586;2024-03-08T05:38:28;19.00;55.50
53978;DHT22;39886;47.984;-1.586;2024-03-08T05:40:54;19.00;55.50
53978;DHT22;39886;47.984;-1.586;2024-03-08T05:43:20;19.10;55.50
53978;DHT22;39886;47.984;-1.586;2024-03-08T05:45:46;19.10;55.40
53978;DHT22;39886;47.984;-1.586;2024-03-08T05:48:11;19.20;55.40
53978;DHT22;39886;47.984;-1.586;2024-03-08T05:50:40;19.20;55.30
53978;DHT22;39886;47.984;-1.586;2024-03-08T05:53:05;19.30;55.30
53978;DHT22;39886;47.984;-1.586;2024-03-08T05:55:33;19.40;55.30
53978;DHT22;39886;47.984;-1.586;2024-03-08T05:58:02;19.30;55.20
53978;DHT22;39886;47.984;-1.586;2024-03-08T06:00:27;19.40;55.20
53978;DHT22;39886;47.984;-1.586;2024-03-08T06:02:53;19.50;55.20
53978;DHT22;39886;47.984;-1.586;2024-03-08T06:05:18;19.50;55.10
53978;DHT22;39886;47.984;-1.586;2024-03-08T06:07:44;19.50;55.10
53978;DHT22;39886;47.984;-1.586;2024-03-08T06:10:10;19.60;55.10
53978;DHT22;39886;47.984;-1.586;2024-03-08T06:12:36;19.60;55.00
53978;DHT22;39886;47.984;-1.586;2024-03-08T06:15:07;19.70;55.00
53978;DHT22;39886;47.984;-1.586;2024-03-08T06:17:34;19.70;54.90
53978;DHT22;39886;47.984;-1.586;2024-03-08T06:20:00;19.70;54.80
53978;DHT22;39886;47.984;-1.586;2024-03-08T06:22:25;19.80;54.80
53978;DHT22;39886;47.984;-1.586;2024-03-08T06:24:51;19.80;54.80
53978;DHT22;39886;47.984;-1.586;2024-03-08T06:27:17;19.80;54.80
53978;DHT22;39886;47.984;-1.586;2024-03-08T06:29:42;19.90;54.70
53978;DHT22;39886;47.984;-1.586;2024-03-08T06:32:08;19.90;54.70
53978;DHT22;39886;47.984;-1.586;2024-03-08T06:34:34;19.90;54.60
53978;DHT22;39886;47.984;-1.586;2024-03-08T06:37:02;20.00;54.60
53978;DHT22;39886;47.984;-1.586;2024-03-08T06:39:27;20.00;54.60
53978;DHT22;39886;47.984;-1.586;2024-03-08T06:41:57;20.00;54.50
53978;DHT22;39886;47.984;-1.586;2024-03-08T06:44:22;20.00;54.40
53978;DHT22;39886;47.984;-1.586;2024-03-08T06:46:48;20.10;54.40
53978;DHT22;39886;47.984;-1.586;2024-03-08T06:49:14;20.10;54.40
53978;DHT22;39886;47.984;-1.586;2024-03-08T06:51:40;20.10;54.30
53978;DHT22;39886;47.984;-1.586;2024-03-08T06:54:06;20.10;54.30
53978;DHT22;39886;47.984;-1.586;2024-03-08T06:56:37;20.20;54.20
53978;DHT22;39886;47.984;-1.586;2024-03-08T06:59:03;20.20;54.20
53978;DHT22;39886;47.984;-1.586;2024-03-08T07:01:29;20.20;54.10
53978;DHT22;39886;47.984;-1.586;2024-03-08T07:03:57;20.20;54.10
53978;DHT22;39886;47.984;-1.586;2024-03-08T07:06:23;20.20;54.10
53978;DHT22;39886;47.984;-1.586;2024-03-08T07:08:48;20.20;54.10
53978;DHT22;39886;47.984;-1.586;2024-03-08T07:11:14;20.20;54.10
53978;DHT22;39886;47.984;-1.586;2024-03-08T07:13:46;20.20;54.10
53978;DHT22;39886;47.984;-1.586;2024-03-08T07:16:11;20.20;54.10
53978;DHT22;39886;47.984;-1.586;2024-03-08T07:18:37;20.20;54.00
53978;DHT22;39886;47.984;-1.586;2024-03-08T07:21:05;20.20;54.00
53978;DHT22;39886;47.984;-1.586;2024-03-08T07:23:30;20.30;54.00
53978;DHT22;39886;47.984;-1.586;2024-03-08T07:26:15;20.30;54.00
53978;DHT22;39886;47.984;-1.586;2024-03-08T07:28:40;20.30;53.90
53978;DHT22;39886;47.984;-1.586;2024-03-08T07:31:06;20.40;53.90
53978;DHT22;39886;47.984;-1.586;2024-03-08T07:33:37;20.40;53.90
53978;DHT22;39886;47.984;-1.586;2024-03-08T07:36:03;20.40;53.90
53978;DHT22;39886;47.984;-1.586;2024-03-08T07:38:29;20.40;53.90
53978;DHT22;39886;47.984;-1.586;2024-03-08T07:40:54;20.50;53.80
53978;DHT22;39886;47.984;-1.586;2024-03-08T07:43:22;20.50;53.90
53978;DHT22;39886;47.984;-1.586;2024-03-08T07:45:48;20.50;53.80
53978;DHT22;39886;47.984;-1.586;2024-03-08T07:48:13;20.50;53.80
53978;DHT22;39886;47.984;-1.586;2024-03-08T07:50:39;20.60;53.80
53978;DHT22;39886;47.984;-1.586;2024-03-08T07:53:05;20.60;53.80
53978;DHT22;39886;47.984;-1.586;2024-03-08T07:55:32;20.70;53.80
53978;DHT22;39886;47.984;-1.586;2024-03-08T07:57:58;20.70;53.80
53978;DHT22;39886;47.984;-1.586;2024-03-08T08:00:23;20.70;53.70
53978;DHT22;39886;47.984;-1.586;2024-03-08T08:02:49;20.70;53.70
53978;DHT22;39886;47.984;-1.586;2024-03-08T08:05:15;20.80;53.80
53978;DHT22;39886;47.984;-1.586;2024-03-08T08:07:44;20.80;53.70
53978;DHT22;39886;47.984;-1.586;2024-03-08T08:10:09;20.80;53.70
53978;DHT22;39886;47.984;-1.586;2024-03-08T08:12:42;20.90;53.80
53978;DHT22;39886;47.984;-1.586;2024-03-08T08:15:07;20.90;53.70
53978;DHT22;39886;47.984;-1.586;2024-03-08T08:17:33;20.90;53.70
53978;DHT22;39886;47.984;-1.586;2024-03-08T08:20:00;21.00;53.80
53978;DHT22;39886;47.984;-1.586;2024-03-08T08:22:25;21.10;53.80
53978;DHT22;39886;47.984;-1.586;2024-03-08T08:24:51;21.10;53.70
53978;DHT22;39886;47.984;-1.586;2024-03-08T08:27:17;21.20;53.80
53978;DHT22;39886;47.984;-1.586;2024-03-08T08:29:43;21.20;53.70
53978;DHT22;39886;47.984;-1.586;2024-03-08T08:32:08;21.30;53.70
53978;DHT22;39886;47.984;-1.586;2024-03-08T08:34:34;21.40;53.80
53978;DHT22;39886;47.984;-1.586;2024-03-08T08:37:00;21.40;53.70
53978;DHT22;39886;47.984;-1.586;2024-03-08T08:39:26;21.50;53.80
53978;DHT22;39886;47.984;-1.586;2024-03-08T08:41:51;21.50;53.70
53978;DHT22;39886;47.984;-1.586;2024-03-08T08:44:17;21.50;53.70
53978;DHT22;39886;47.984;-1.586;2024-03-08T08:46:43;21.60;53.80
53978;DHT22;39886;47.984;-1.586;2024-03-08T08:49:09;21.70;53.80
53978;DHT22;39886;47.984;-1.586;2024-03-08T08:51:40;21.70;53.90
53978;DHT22;39886;47.984;-1.586;2024-03-08T08:54:05;21.80;53.90
53978;DHT22;39886;47.984;-1.586;2024-03-08T08:56:34;21.80;53.80
53978;DHT22;39886;47.984;-1.586;2024-03-08T08:59:00;21.90;53.80
53978;DHT22;39886;47.984;-1.586;2024-03-08T09:01:26;21.90;53.80
53978;DHT22;39886;47.984;-1.586;2024-03-08T09:03:52;21.90;53.90
53978;DHT22;39886;47.984;-1.586;2024-03-08T09:06:19;22.00;53.90
53978;DHT22;39886;47.984;-1.586;2024-03-08T09:08:45;22.00;53.80
53978;DHT22;39886;47.984;-1.586;2024-03-08T09:11:11;22.00;53.90
53978;DHT22;39886;47.984;-1.586;2024-03-08T09:13:37;22.00;53.90
53978;DHT22;39886;47.984;-1.586;2024-03-08T09:16:03;22.00;53.90
53978;DHT22;39886;47.984;-1.586;2024-03-08T09:18:30;22.10;54.10
53978;DHT22;39886;47.984;-1.586;2024-03-08T09:21:00;22.20;54.00
53978;DHT22;39886;47.984;-1.586;2024-03-08T09:23:25;22.10;53.90
53978;DHT22;39886;47.984;-1.586;2024-03-08T09:25:56;22.20;53.90
53978;DHT22;39886;47.984;-1.586;2024-03-08T09:28:23;22.20;54.00
53978;DHT22;39886;47.984;-1.586;2024-03-08T09:30:49;22.20;53.90
53978;DHT22;39886;47.984;-1.586;2024-03-08T09:33:14;22.20;53.90
53978;DHT22;39886;47.984;-1.586;2024-03-08T09:35:47;22.20;53.90
53978;DHT22;39886;47.984;-1.586;2024-03-08T09:38:14;22.20;53.70
53978;DHT22;39886;47.984;-1.586;2024-03-08T09:40:43;22.30;53.80
53978;DHT22;39886;47.984;-1.586;2024-03-08T09:43:09;22.30;53.70
53978;DHT22;39886;47.984;-1.586;2024-03-08T09:45:37;22.30;53.70
53978;DHT22;39886;47.984;-1.586;2024-03-08T09:48:10;22.40;53.70
53978;DHT22;39886;47.984;-1.586;2024-03-08T09:50:38;22.40;53.60
53978;DHT22;39886;47.984;-1.586;2024-03-08T09:53:03;22.40;53.60
53978;DHT22;39886;47.984;-1.586;2024-03-08T09:55:29;22.40;53.50
53978;DHT22;39886;47.984;-1.586;2024-03-08T09:57:59;22.40;53.50
53978;DHT22;39886;47.984;-1.586;2024-03-08T10:00:58;22.40;53.50
53978;DHT22;39886;47.984;-1.586;2024-03-08T10:03:23;22.40;53.40
53978;DHT22;39886;47.984;-1.586;2024-03-08T10:05:51;22.40;53.40
53978;DHT22;39886;47.984;-1.586;2024-03-08T10:08:17;22.30;53.50
53978;DHT22;39886;47.984;-1.586;2024-03-08T10:10:42;22.10;53.60
53978;DHT22;39886;47.984;-1.586;2024-03-08T10:13:09;22.00;53.60
53978;DHT22;39886;47.984;-1.586;2024-03-08T10:15:35;21.90;53.70
53978;DHT22;39886;47.984;-1.586;2024-03-08T10:18:01;21.90;53.80
53978;DHT22;39886;47.984;-1.586;2024-03-08T10:20:30;21.80;53.80
53978;DHT22;39886;47.984;-1.586;2024-03-08T10:23:01;21.70;53.90
53978;DHT22;39886;47.984;-1.586;2024-03-08T10:25:29;21.70;53.90
53978;DHT22;39886;47.984;-1.586;2024-03-08T10:27:55;21.60;53.90
53978;DHT22;39886;47.984;-1.586;2024-03-08T10:30:21;21.60;54.00
53978;DHT22;39886;47.984;-1.586;2024-03-08T10:32:47;21.50;54.00
53978;DHT22;39886;47.984;-1.586;2024-03-08T10:35:13;21.50;54.70
53978;DHT22;39886;47.984;-1.586;2024-03-08T10:37:45;21.50;54.10
53978;DHT22;39886;47.984;-1.586;2024-03-08T10:40:13;21.40;54.10
53978;DHT22;39886;47.984;-1.586;2024-03-08T10:45:19;21.40;54.20
53978;DHT22;39886;47.984;-1.586;2024-03-08T10:47:49;21.40;54.20
53978;DHT22;39886;47.984;-1.586;2024-03-08T10:50:18;21.30;54.20
53978;DHT22;39886;47.984;-1.586;2024-03-08T10:52:49;21.30;54.30
53978;DHT22;39886;47.984;-1.586;2024-03-08T10:55:14;21.30;54.40
53978;DHT22;39886;47.984;-1.586;2024-03-08T10:57:41;21.30;54.40
53978;DHT22;39886;47.984;-1.586;2024-03-08T11:00:08;21.30;54.40
53978;DHT22;39886;47.984;-1.586;2024-03-08T11:02:37;21.30;54.40
53978;DHT22;39886;47.984;-1.586;2024-03-08T11:05:09;21.30;54.40
53978;DHT22;39886;47.984;-1.586;2024-03-08T11:07:40;21.20;54.40
53978;DHT22;39886;47.984;-1.586;2024-03-08T11:10:06;21.20;54.50
53978;DHT22;39886;47.984;-1.586;2024-03-08T11:12:36;21.20;54.50
53978;DHT22;39886;47.984;-1.586;2024-03-08T11:15:03;21.20;54.50
53978;DHT22;39886;47.984;-1.586;2024-03-08T11:20:14;21.30;54.60
53978;DHT22;39886;47.984;-1.586;2024-03-08T11:22:52;21.50;54.60
53978;DHT22;39886;47.984;-1.586;2024-03-08T11:28:06;21.80;54.40
53978;DHT22;39886;47.984;-1.586;2024-03-08T11:30:32;21.90;54.40
53978;DHT22;39886;47.984;-1.586;2024-03-08T11:33:00;22.00;54.30
53978;DHT22;39886;47.984;-1.586;2024-03-08T11:35:26;22.10;54.20
53978;DHT22;39886;47.984;-1.586;2024-03-08T11:37:52;22.20;54.10
53978;DHT22;39886;47.984;-1.586;2024-03-08T11:40:18;22.30;54.20
53978;DHT22;39886;47.984;-1.586;2024-03-08T11:42:45;22.40;54.10
53978;DHT22;39886;47.984;-1.586;2024-03-08T11:45:12;22.40;53.90
53978;DHT22;39886;47.984;-1.586;2024-03-08T11:47:41;22.50;54.00
53978;DHT22;39886;47.984;-1.586;2024-03-08T11:50:07;22.50;54.00
53978;DHT22;39886;47.984;-1.586;2024-03-08T11:52:36;22.40;54.00
53978;DHT22;39886;47.984;-1.586;2024-03-08T11:55:02;22.30;54.10
53978;DHT22;39886;47.984;-1.586;2024-03-08T11:57:28;22.10;54.20
53978;DHT22;39886;47.984;-1.586;2024-03-08T11:59:55;22.00;54.30
53978;DHT22;39886;47.984;-1.586;2024-03-08T12:02:31;21.90;54.40
53978;DHT22;39886;47.984;-1.586;2024-03-08T12:04:57;21.80;54.50
53978;DHT22;39886;47.984;-1.586;2024-03-08T12:07:25;21.70;54.50
53978;DHT22;39886;47.984;-1.586;2024-03-08T12:12:41;21.60;54.60
53978;DHT22;39886;47.984;-1.586;2024-03-08T12:15:07;21.50;54.70
53978;DHT22;39886;47.984;-1.586;2024-03-08T12:17:33;21.50;54.80
53978;DHT22;39886;47.984;-1.586;2024-03-08T12:20:10;21.40;55.50
53978;DHT22;39886;47.984;-1.586;2024-03-08T12:22:40;21.40;55.00
53978;DHT22;39886;47.984;-1.586;2024-03-08T12:25:06;21.30;55.00
53978;DHT22;39886;47.984;-1.586;2024-03-08T12:27:36;21.20;55.00
53978;DHT22;39886;47.984;-1.586;2024-03-08T12:32:50;21.10;55.10
53978;DHT22;39886;47.984;-1.586;2024-03-08T12:35:19;21.10;55.10
53978;DHT22;39886;47.984;-1.586;2024-03-08T12:37:51;21.10;55.20
53978;DHT22;39886;47.984;-1.586;2024-03-08T12:40:18;21.10;55.30
53978;DHT22;39886;47.984;-1.586;2024-03-08T12:42:47;21.10;55.30
53978;DHT22;39886;47.984;-1.586;2024-03-08T12:45:15;21.00;55.30
53978;DHT22;39886;47.984;-1.586;2024-03-08T12:47:41;21.10;55.30
53978;DHT22;39886;47.984;-1.586;2024-03-08T12:50:07;21.10;55.30
53978;DHT22;39886;47.984;-1.586;2024-03-08T12:52:34;21.20;55.30
53978;DHT22;39886;47.984;-1.586;2024-03-08T12:54:59;21.20;55.30
53978;DHT22;39886;47.984;-1.586;2024-03-08T12:57:32;21.20;55.40
53978;DHT22;39886;47.984;-1.586;2024-03-08T12:59:59;21.30;55.40
53978;DHT22;39886;47.984;-1.586;2024-03-08T13:02:25;21.30;55.40
53978;DHT22;39886;47.984;-1.586;2024-03-08T13:04:51;21.30;55.40
53978;DHT22;39886;47.984;-1.586;2024-03-08T13:07:25;21.40;55.50
53978;DHT22;39886;47.984;-1.586;2024-03-08T13:09:52;21.40;55.50
53978;DHT22;39886;47.984;-1.586;2024-03-08T13:12:18;21.40;55.60
53978;DHT22;39886;47.984;-1.586;2024-03-08T13:14:45;21.50;55.60
53978;DHT22;39886;47.984;-1.586;2024-03-08T13:17:12;21.50;55.70
53978;DHT22;39886;47.984;-1.586;2024-03-08T13:19:37;21.50;55.70
53978;DHT22;39886;47.984;-1.586;2024-03-08T13:22:07;21.40;55.70
53978;DHT22;39886;47.984;-1.586;2024-03-08T13:24:34;21.40;55.70
53978;DHT22;39886;47.984;-1.586;2024-03-08T13:27:00;21.40;55.80
53978;DHT22;39886;47.984;-1.586;2024-03-08T13:29:26;21.50;55.80
53978;DHT22;39886;47.984;-1.586;2024-03-08T13:31:51;21.50;55.90
53978;DHT22;39886;47.984;-1.586;2024-03-08T13:34:18;21.50;55.90
53978;DHT22;39886;47.984;-1.586;2024-03-08T13:36:44;21.50;55.90
53978;DHT22;39886;47.984;-1.586;2024-03-08T13:39:11;21.60;55.90
53978;DHT22;39886;47.984;-1.586;2024-03-08T13:41:43;21.60;56.00
53978;DHT22;39886;47.984;-1.586;2024-03-08T13:44:10;21.50;56.00
53978;DHT22;39886;47.984;-1.586;2024-03-08T13:46:35;21.50;56.10
53978;DHT22;39886;47.984;-1.586;2024-03-08T13:49:04;21.50;56.10
53978;DHT22;39886;47.984;-1.586;2024-03-08T13:51:35;21.50;56.30
53978;DHT22;39886;47.984;-1.586;2024-03-08T13:54:00;21.50;56.40
53978;DHT22;39886;47.984;-1.586;2024-03-08T13:56:29;21.50;56.40
53978;DHT22;39886;47.984;-1.586;2024-03-08T13:58:56;21.40;56.50
53978;DHT22;39886;47.984;-1.586;2024-03-08T14:01:22;21.40;56.50
53978;DHT22;39886;47.984;-1.586;2024-03-08T14:03:48;21.40;56.60
53978;DHT22;39886;47.984;-1.586;2024-03-08T14:06:14;21.40;56.70
53978;DHT22;39886;47.984;-1.586;2024-03-08T14:08:39;21.40;56.70
53978;DHT22;39886;47.984;-1.586;2024-03-08T14:11:05;21.30;56.70
53978;DHT22;39886;47.984;-1.586;2024-03-08T14:13:44;21.30;56.80
53978;DHT22;39886;47.984;-1.586;2024-03-08T14:16:11;21.30;56.80
53978;DHT22;39886;47.984;-1.586;2024-03-08T14:18:36;21.30;57.00
53978;DHT22;39886;47.984;-1.586;2024-03-08T14:21:02;21.30;56.90
53978;DHT22;39886;47.984;-1.586;2024-03-08T14:23:29;21.30;57.00
53978;DHT22;39886;47.984;-1.586;2024-03-08T14:25:55;21.50;57.00
53978;DHT22;39886;47.984;-1.586;2024-03-08T14:28:21;21.40;56.80
53978;DHT22;39886;47.984;-1.586;2024-03-08T14:30:48;21.30;56.90
53978;DHT22;39886;47.984;-1.586;2024-03-08T14:33:14;21.30;57.00
53978;DHT22;39886;47.984;-1.586;2024-03-08T14:35:40;21.30;57.10
53978;DHT22;39886;47.984;-1.586;2024-03-08T14:38:06;21.30;57.10
53978;DHT22;39886;47.984;-1.586;2024-03-08T14:40:36;21.30;57.20
53978;DHT22;39886;47.984;-1.586;2024-03-08T14:43:02;21.20;57.20
53978;DHT22;39886;47.984;-1.586;2024-03-08T14:45:27;21.20;57.20
53978;DHT22;39886;47.984;-1.586;2024-03-08T14:47:53;21.20;57.30
53978;DHT22;39886;47.984;-1.586;2024-03-08T14:50:20;21.20;57.20
53978;DHT22;39886;47.984;-1.586;2024-03-08T14:52:48;21.20;57.30
53978;DHT22;39886;47.984;-1.586;2024-03-08T14:55:14;21.20;57.40
53978;DHT22;39886;47.984;-1.586;2024-03-08T14:57:40;21.10;57.40
53978;DHT22;39886;47.984;-1.586;2024-03-08T15:00:06;21.10;57.40
53978;DHT22;39886;47.984;-1.586;2024-03-08T15:02:33;21.10;57.50
53978;DHT22;39886;47.984;-1.586;2024-03-08T15:05:05;21.10;57.60
53978;DHT22;39886;47.984;-1.586;2024-03-08T15:07:39;21.00;57.60
53978;DHT22;39886;47.984;-1.586;2024-03-08T15:10:06;21.10;57.70
53978;DHT22;39886;47.984;-1.586;2024-03-08T15:12:36;21.00;57.70
53978;DHT22;39886;47.984;-1.586;2024-03-08T15:15:02;21.00;57.70
53978;DHT22;39886;47.984;-1.586;2024-03-08T15:17:33;21.00;57.80
53978;DHT22;39886;47.984;-1.586;2024-03-08T15:20:00;21.00;57.80
53978;DHT22;39886;47.984;-1.586;2024-03-08T15:22:26;20.90;57.80
53978;DHT22;39886;47.984;-1.586;2024-03-08T15:24:52;20.90;57.90
53978;DHT22;39886;47.984;-1.586;2024-03-08T15:27:18;20.90;58.00